createdAt,value
2022-10-22T00:02:08.169Z,10.86
2022-10-22T00:04:54.636Z,10.75
2022-10-22T00:07:40.599Z,10.87
2022-10-22T00:10:26.473Z,10.84
2022-10-22T00:13:13.191Z,10.84
2022-10-22T00:15:58.869Z,10.84
2022-10-22T00:18:44.421Z,10.84
2022-10-22T00:21:30.764Z,10.75
2022-10-22T00:24:16.982Z,10.86
2022-10-22T00:27:04.112Z,10.86
2022-10-22T00:29:50.425Z,10.79
2022-10-22T00:32:36.072Z,10.89
2022-10-22T00:35:22.129Z,10.81
2022-10-22T00:38:07.952Z,10.80
2022-10-22T00:40:54.411Z,10.87
2022-10-22T00:44:00.357Z,10.80
2022-10-22T00:46:46.006Z,10.89
2022-10-22T00:49:31.527Z,10.87
2022-10-22T00:52:17.707Z,10.82
2022-10-22T00:55:03.553Z,10.84
2022-10-22T00:57:50.001Z,10.83
2022-10-22T01:00:36.079Z,10.92
2022-10-22T01:03:22.504Z,10.94
2022-10-22T01:06:08.367Z,10.93
2022-10-22T01:09:19.399Z,10.94
2022-10-22T01:12:05.084Z,10.95
2022-10-22T01:15:12.912Z,10.92
2022-10-22T01:18:03.433Z,10.93
2022-10-22T01:21:19.197Z,10.87
2022-10-22T01:24:13.790Z,10.89
2022-10-22T01:27:23.878Z,10.78
2022-10-22T01:30:14.443Z,10.85
2022-10-22T01:33:04.025Z,10.78
2022-10-22T01:35:50.202Z,10.74
2022-10-22T01:38:36.465Z,10.79
2022-10-22T01:41:21.855Z,10.86
2022-10-22T01:44:07.617Z,10.92
2022-10-22T01:47:05.190Z,10.92
2022-10-22T01:50:10.028Z,10.91
2022-10-22T01:53:17.359Z,10.89
2022-10-22T01:56:15.562Z,10.87
2022-10-22T01:59:25.204Z,10.81
2022-10-22T02:02:17.456Z,10.86
2022-10-22T02:05:11.859Z,10.81
2022-10-22T02:08:03.426Z,10.77
2022-10-22T02:10:49.713Z,10.84
2022-10-22T02:13:41.650Z,10.81
2022-10-22T02:16:34.608Z,10.80
2022-10-22T02:19:25.906Z,10.82
2022-10-22T02:22:11.517Z,10.82
2022-10-22T02:24:57.730Z,10.90
2022-10-22T02:27:52.180Z,10.77
2022-10-22T02:30:41.507Z,10.83
2022-10-22T02:33:30.828Z,10.80
2022-10-22T02:36:17.439Z,10.79
2022-10-22T02:39:03.867Z,10.91
2022-10-22T02:41:50.102Z,10.82
2022-10-22T02:44:35.686Z,10.94
2022-10-22T02:47:22.386Z,10.91
2022-10-22T02:50:10.309Z,10.87
2022-10-22T02:52:56.816Z,10.98
2022-10-22T02:55:43.023Z,10.98
2022-10-22T02:58:29.642Z,10.91
2022-10-22T03:01:16.247Z,11.00
2022-10-22T03:04:02.578Z,11.03
2022-10-22T03:06:49.101Z,10.98
2022-10-22T03:09:35.287Z,10.98
2022-10-22T03:12:21.353Z,10.99
2022-10-22T03:15:07.195Z,10.86
2022-10-22T03:17:52.696Z,10.99
2022-10-22T03:20:39.038Z,10.93
2022-10-22T03:23:24.495Z,10.92
2022-10-22T03:26:12.683Z,10.93
2022-10-22T03:28:58.225Z,10.99
2022-10-22T03:31:44.163Z,11.01
2022-10-22T03:34:29.660Z,10.97
2022-10-22T03:37:15.258Z,10.96
2022-10-22T03:40:01.094Z,11.03
2022-10-22T03:42:47.241Z,10.96
2022-10-22T03:45:32.658Z,10.98
2022-10-22T03:48:18.710Z,11.05
2022-10-22T03:51:04.530Z,10.97
2022-10-22T03:53:50.704Z,11.06
2022-10-22T03:56:36.556Z,10.94
2022-10-22T03:59:22.166Z,10.98
2022-10-22T04:02:07.866Z,11.05
2022-10-22T04:04:53.625Z,10.99
2022-10-22T04:07:39.213Z,11.07
2022-10-22T04:10:25.737Z,11.11
2022-10-22T04:13:11.302Z,11.03
2022-10-22T04:16:16.244Z,11.07
2022-10-22T04:19:02.115Z,10.92
2022-10-22T04:21:48.387Z,10.99
2022-10-22T04:24:34.134Z,10.98
2022-10-22T04:27:19.769Z,10.89
2022-10-22T04:30:06.728Z,10.97
2022-10-22T04:32:52.877Z,11.03
2022-10-22T04:35:39.847Z,10.95
2022-10-22T04:38:25.603Z,11.00
2022-10-22T04:41:16.432Z,10.90
2022-10-22T04:44:02.749Z,10.84
2022-10-22T04:46:48.434Z,11.00
2022-10-22T04:49:34.224Z,11.02
2022-10-22T04:52:20.033Z,10.94
2022-10-22T04:55:05.849Z,11.00
2022-10-22T04:57:51.358Z,10.94
2022-10-22T05:00:37.545Z,11.03
2022-10-22T05:03:25.156Z,11.03
2022-10-22T05:09:01.890Z,10.95
2022-10-22T05:11:50.803Z,11.05
2022-10-22T05:14:36.280Z,11.05
2022-10-22T05:17:22.103Z,10.98
2022-10-22T05:20:08.482Z,11.04
2022-10-22T05:22:54.301Z,10.99
2022-10-22T05:25:39.900Z,11.07
2022-10-22T05:28:25.408Z,11.01
2022-10-22T05:31:12.405Z,11.04
2022-10-22T05:33:58.090Z,11.01
2022-10-22T05:36:43.744Z,11.03
2022-10-22T05:39:29.840Z,11.12
2022-10-22T05:42:15.780Z,11.02
2022-10-22T05:45:01.434Z,11.09
2022-10-22T05:47:46.839Z,11.12
2022-10-22T05:50:32.840Z,11.10
2022-10-22T05:53:18.584Z,11.12
2022-10-22T05:56:07.845Z,11.12
2022-10-22T05:58:53.990Z,11.12
2022-10-22T06:01:41.009Z,11.11
2022-10-22T06:04:26.726Z,11.10
2022-10-22T06:07:15.363Z,10.95
2022-10-22T06:10:01.137Z,11.10
2022-10-22T06:12:48.328Z,11.12
2022-10-22T06:15:34.274Z,11.15
2022-10-22T06:18:20.561Z,11.06
2022-10-22T06:21:11.571Z,11.10
2022-10-22T06:23:58.669Z,11.17
2022-10-22T06:26:44.946Z,11.21
2022-10-22T06:29:30.596Z,11.06
2022-10-22T06:32:16.228Z,11.23
2022-10-22T06:35:02.247Z,11.23
2022-10-22T06:37:47.911Z,11.30
2022-10-22T06:40:33.987Z,11.27
2022-10-22T06:43:19.684Z,11.28
2022-10-22T06:46:08.844Z,11.40
2022-10-22T06:48:57.352Z,11.32
2022-10-22T06:51:43.330Z,11.43
2022-10-22T06:54:28.944Z,11.45
2022-10-22T06:57:14.820Z,11.46
2022-10-22T07:00:00.238Z,11.47
2022-10-22T07:02:56.405Z,11.51
2022-10-22T07:05:44.486Z,11.48
2022-10-22T07:08:30.789Z,11.53
2022-10-22T07:11:17.525Z,11.44
2022-10-22T07:14:04.103Z,11.51
2022-10-22T07:16:49.978Z,11.42
2022-10-22T07:19:35.828Z,11.54
2022-10-22T07:22:21.886Z,11.44
2022-10-22T07:25:08.669Z,11.55
2022-10-22T07:27:54.519Z,11.49
2022-10-22T07:30:40.545Z,11.51
2022-10-22T07:33:27.175Z,11.61
2022-10-22T07:36:17.774Z,11.61
2022-10-22T07:39:04.192Z,11.44
2022-10-22T07:41:50.671Z,11.62
2022-10-22T07:44:36.331Z,11.63
2022-10-22T07:47:22.457Z,11.54
2022-10-22T07:50:08.355Z,11.62
2022-10-22T07:52:56.120Z,11.66
2022-10-22T07:55:43.733Z,11.62
2022-10-22T07:58:29.707Z,11.75
2022-10-22T08:01:15.380Z,11.76
2022-10-22T08:04:01.556Z,11.70
2022-10-22T08:06:47.472Z,11.77
2022-10-22T08:09:33.920Z,11.73
2022-10-22T08:12:19.369Z,11.71
2022-10-22T08:15:06.328Z,11.82
2022-10-22T08:17:52.098Z,11.80
2022-10-22T08:20:38.217Z,11.91
2022-10-22T08:23:27.496Z,11.96
2022-10-22T08:26:14.586Z,11.99
2022-10-22T08:28:59.956Z,11.93
2022-10-22T08:31:46.037Z,12.03
2022-10-22T08:34:31.530Z,12.09
2022-10-22T08:37:17.912Z,12.11
2022-10-22T08:40:04.706Z,12.07
2022-10-22T08:43:04.829Z,12.15
2022-10-22T08:46:01.505Z,12.17
2022-10-22T08:49:13.037Z,12.17
2022-10-22T08:51:59.623Z,12.15
2022-10-22T08:54:52.266Z,12.14
2022-10-22T08:57:42.778Z,12.17
2022-10-22T09:00:54.051Z,12.06
2022-10-22T09:03:51.307Z,12.14
2022-10-22T09:06:38.148Z,12.04
2022-10-22T09:09:36.139Z,12.10
2022-10-22T09:12:22.878Z,12.08
2022-10-22T09:15:13.751Z,12.10
2022-10-22T09:18:05.508Z,12.13
2022-10-22T09:20:58.549Z,12.13
2022-10-22T09:23:50.642Z,12.19
2022-10-22T09:26:38.090Z,12.09
2022-10-22T09:29:31.979Z,12.23
2022-10-22T09:32:18.767Z,12.24
2022-10-22T09:35:04.931Z,12.32
2022-10-22T09:37:55.510Z,12.14
2022-10-22T09:40:45.884Z,12.34
2022-10-22T09:43:32.806Z,12.37
2022-10-22T09:46:21.760Z,12.38
2022-10-22T09:49:13.804Z,12.40
2022-10-22T09:52:00.942Z,12.50
2022-10-22T09:54:46.671Z,12.52
2022-10-22T09:57:32.844Z,12.52
2022-10-22T10:00:19.268Z,12.58
2022-10-22T10:03:04.975Z,12.63
2022-10-22T10:05:54.759Z,12.65
2022-10-22T10:08:40.588Z,12.66
2022-10-22T10:11:37.613Z,12.75
2022-10-22T10:14:37.823Z,12.68
2022-10-22T10:17:40.186Z,12.73
2022-10-22T10:21:07.897Z,12.83
2022-10-22T10:24:12.432Z,12.84
2022-10-22T10:27:01.075Z,12.84
2022-10-22T10:30:01.453Z,12.84
2022-10-22T10:33:06.267Z,12.80
2022-10-22T10:36:03.135Z,12.87
2022-10-22T10:38:54.896Z,12.88
2022-10-22T10:41:40.550Z,12.90
2022-10-22T10:45:00.262Z,12.93
2022-10-22T10:48:10.896Z,12.97
2022-10-22T10:51:28.603Z,12.86
2022-10-22T10:54:29.704Z,13.02
2022-10-22T10:57:34.546Z,13.06
2022-10-22T11:00:21.574Z,13.00
2022-10-22T11:03:46.528Z,13.11
2022-10-22T11:06:34.219Z,13.14
2022-10-22T11:09:30.368Z,13.09
2022-10-22T11:12:23.522Z,13.09
2022-10-22T11:15:19.546Z,13.10
2022-10-22T11:18:20.998Z,12.95
2022-10-22T11:21:13.357Z,13.02
2022-10-22T11:24:08.416Z,13.07
2022-10-22T11:26:56.490Z,13.09
2022-10-22T11:29:47.446Z,13.06
2022-10-22T11:32:33.597Z,13.08
2022-10-22T11:35:27.211Z,13.02
2022-10-22T11:38:17.400Z,13.09
2022-10-22T11:41:11.608Z,13.04
2022-10-22T11:44:07.823Z,13.09
2022-10-22T11:46:53.457Z,13.18
2022-10-22T11:49:55.081Z,13.15
2022-10-22T11:52:46.065Z,13.18
2022-10-22T11:55:34.500Z,13.17
2022-10-22T11:58:29.613Z,13.20
2022-10-22T12:01:45.218Z,13.14
2022-10-22T12:04:41.540Z,13.19
2022-10-22T12:07:47.083Z,13.02
2022-10-22T12:10:48.782Z,13.21
2022-10-22T12:13:58.796Z,13.18
2022-10-22T12:16:58.090Z,13.33
2022-10-22T12:19:50.162Z,13.30
2022-10-22T12:22:39.372Z,13.23
2022-10-22T12:25:35.479Z,13.32
2022-10-22T12:28:21.731Z,13.33
2022-10-22T12:31:16.149Z,13.39
2022-10-22T12:34:01.718Z,13.34
2022-10-22T12:36:48.902Z,13.32
2022-10-22T12:39:35.607Z,13.38
2022-10-22T12:42:24.028Z,13.38
2022-10-22T12:45:09.957Z,13.38
2022-10-22T12:47:58.258Z,13.36
2022-10-22T12:50:47.361Z,13.39
2022-10-22T12:53:33.451Z,13.39
2022-10-22T12:56:48.341Z,13.39
2022-10-22T12:59:38.383Z,13.39
2022-10-22T13:02:26.647Z,13.38
2022-10-22T13:05:17.248Z,13.40
2022-10-22T13:08:04.383Z,13.34
2022-10-22T13:10:53.176Z,13.35
2022-10-22T13:13:38.796Z,13.14
2022-10-22T13:16:27.762Z,13.27
2022-10-22T13:19:42.500Z,13.24
2022-10-22T13:22:39.921Z,13.21
2022-10-22T13:25:38.574Z,13.16
2022-10-22T13:28:25.150Z,13.15
2022-10-22T13:31:32.254Z,13.02
2022-10-22T13:34:19.974Z,13.01
2022-10-22T13:37:09.270Z,13.08
2022-10-22T13:39:56.001Z,13.07
2022-10-22T13:42:41.973Z,13.04
2022-10-22T13:45:29.288Z,13.02
2022-10-22T13:48:16.600Z,13.01
2022-10-22T13:51:03.162Z,12.98
2022-10-22T13:53:50.995Z,12.92
2022-10-22T13:56:37.217Z,12.92
2022-10-22T13:59:23.892Z,12.83
2022-10-22T14:02:14.367Z,12.76
2022-10-22T14:05:03.301Z,12.80
2022-10-22T14:07:49.807Z,12.80
2022-10-22T14:10:35.589Z,12.74
2022-10-22T14:13:21.939Z,12.79
2022-10-22T14:16:11.500Z,12.72
2022-10-22T14:18:57.887Z,12.76
2022-10-22T14:21:43.897Z,12.77
2022-10-22T14:24:29.976Z,12.74
2022-10-22T14:27:15.603Z,12.71
2022-10-22T14:30:01.281Z,12.66
2022-10-22T14:32:48.842Z,12.74
2022-10-22T14:35:34.693Z,12.72
2022-10-22T14:38:20.392Z,12.74
2022-10-22T14:41:17.058Z,12.74
2022-10-22T14:44:03.257Z,12.64
2022-10-22T14:46:50.179Z,12.74
2022-10-22T14:49:35.781Z,12.76
2022-10-22T14:52:21.934Z,12.73
2022-10-22T14:55:12.240Z,12.73
2022-10-22T14:57:58.262Z,12.75
2022-10-22T15:00:44.034Z,12.75
2022-10-22T15:03:30.436Z,12.69
2022-10-22T15:06:15.864Z,12.71
2022-10-22T15:09:02.426Z,12.67
2022-10-22T15:11:48.277Z,12.68
2022-10-22T15:14:34.162Z,12.68
2022-10-22T15:17:19.834Z,12.78
2022-10-22T15:20:06.219Z,12.74
2022-10-22T15:22:51.866Z,12.66
2022-10-22T15:25:38.261Z,12.75
2022-10-22T15:28:24.410Z,12.76
2022-10-22T15:31:14.173Z,12.76
2022-10-22T15:34:01.792Z,12.68
2022-10-22T15:36:48.004Z,12.72
2022-10-22T15:39:34.089Z,12.72
2022-10-22T15:42:20.107Z,12.71
2022-10-22T15:45:06.423Z,12.67
2022-10-22T15:47:52.461Z,12.69
2022-10-22T15:50:38.870Z,12.64
2022-10-22T15:53:24.666Z,12.50
2022-10-22T15:56:11.840Z,12.58
2022-10-22T15:59:05.151Z,12.75
2022-10-22T16:01:51.572Z,12.74
2022-10-22T16:04:38.433Z,12.69
2022-10-22T16:07:24.927Z,12.70
2022-10-22T16:10:12.885Z,12.69
2022-10-22T16:12:58.874Z,12.61
2022-10-22T16:15:44.720Z,12.69
2022-10-22T16:18:30.273Z,12.60
2022-10-22T16:21:16.128Z,12.63
2022-10-22T16:24:06.102Z,12.58
2022-10-22T16:26:53.350Z,12.65
2022-10-22T16:29:39.686Z,12.62
2022-10-22T16:32:25.654Z,12.66
2022-10-22T16:35:11.094Z,12.48
2022-10-22T16:37:57.152Z,12.66
2022-10-22T16:40:42.659Z,12.68
2022-10-22T16:43:29.266Z,12.64
2022-10-22T16:46:16.310Z,12.67
2022-10-22T16:49:02.897Z,12.62
2022-10-22T16:51:48.435Z,12.69
2022-10-22T16:54:34.000Z,12.71
2022-10-22T16:57:19.501Z,12.60
2022-10-22T17:00:06.405Z,12.69
2022-10-22T17:02:53.425Z,12.73
2022-10-22T17:05:39.588Z,12.68
2022-10-22T17:08:25.629Z,12.57
2022-10-22T17:11:13.795Z,12.72
2022-10-22T17:13:59.225Z,12.73
2022-10-22T17:16:48.974Z,12.76
2022-10-22T17:19:38.660Z,12.74
2022-10-22T17:22:24.813Z,12.72
2022-10-22T17:25:17.822Z,12.76
2022-10-22T17:28:03.923Z,12.74
2022-10-22T17:30:49.473Z,12.77
2022-10-22T17:33:36.338Z,12.80
2022-10-22T17:36:24.158Z,12.82
2022-10-22T17:39:13.961Z,12.66
2022-10-22T17:41:59.475Z,12.81
2022-10-22T17:44:45.572Z,12.65
2022-10-22T17:47:31.064Z,12.81
2022-10-22T17:50:17.122Z,12.86
2022-10-22T17:53:02.613Z,12.81
2022-10-22T17:55:48.688Z,12.83
2022-10-22T17:58:34.237Z,12.84
2022-10-22T18:01:22.082Z,12.88
2022-10-22T18:04:08.716Z,12.88
2022-10-22T18:06:55.016Z,12.78
2022-10-22T18:09:40.838Z,12.78
2022-10-22T18:12:26.554Z,12.88
2022-10-22T18:15:12.037Z,12.89
2022-10-22T18:17:57.888Z,12.85
2022-10-22T18:20:48.982Z,12.86
2022-10-22T18:23:34.941Z,12.91
2022-10-22T18:26:25.807Z,12.81
2022-10-22T18:29:16.071Z,12.82
2022-10-22T18:32:01.669Z,12.81
2022-10-22T18:34:48.159Z,12.85
2022-10-22T18:37:36.093Z,12.92
2022-10-22T18:40:22.405Z,12.89
2022-10-22T18:43:08.225Z,12.94
2022-10-22T18:45:54.071Z,12.92
2022-10-22T18:48:39.687Z,12.92
2022-10-22T18:51:30.525Z,12.76
2022-10-22T18:54:23.227Z,12.94
2022-10-22T18:57:09.646Z,12.91
2022-10-22T18:59:58.578Z,12.93
2022-10-22T19:02:45.369Z,12.84
2022-10-22T19:05:31.075Z,12.94
2022-10-22T19:08:18.109Z,12.94
2022-10-22T19:11:10.340Z,12.90
2022-10-22T19:13:56.430Z,12.97
2022-10-22T19:16:42.011Z,12.86
2022-10-22T19:19:28.139Z,12.97
2022-10-22T19:22:14.001Z,12.97
2022-10-22T19:24:59.573Z,12.87
2022-10-22T19:27:45.431Z,12.87
2022-10-22T19:30:31.822Z,12.93
2022-10-22T19:33:17.728Z,12.76
2022-10-22T19:36:06.959Z,12.81
2022-10-22T19:38:52.544Z,12.79
2022-10-22T19:41:38.902Z,12.76
2022-10-22T19:44:24.867Z,12.82
2022-10-22T19:47:11.532Z,12.80
2022-10-22T19:49:57.164Z,12.71
2022-10-22T19:52:43.380Z,12.83
2022-10-22T19:55:29.342Z,12.81
2022-10-22T19:58:15.942Z,12.76
2022-10-22T20:01:09.269Z,12.77
2022-10-22T20:03:55.526Z,12.86
2022-10-22T20:06:41.008Z,12.82
2022-10-22T20:09:27.073Z,12.84
2022-10-22T20:12:12.732Z,12.84
2022-10-22T20:14:58.803Z,12.76
2022-10-22T20:17:45.383Z,12.75
2022-10-22T20:20:37.685Z,12.81
2022-10-22T20:23:23.529Z,12.80
2022-10-22T20:26:09.733Z,12.83
2022-10-22T20:28:56.276Z,12.76
2022-10-22T20:31:42.730Z,12.76
2022-10-22T20:34:28.739Z,12.82
2022-10-22T20:37:14.387Z,12.79
2022-10-22T20:39:59.956Z,12.83
2022-10-22T20:42:47.239Z,12.85
2022-10-22T20:45:32.725Z,12.76
2022-10-22T20:48:18.602Z,12.80
2022-10-22T20:51:05.007Z,12.74
2022-10-22T20:53:51.480Z,12.72
2022-10-22T20:56:39.117Z,12.77
2022-10-22T20:59:32.382Z,12.76
2022-10-22T21:02:18.035Z,12.75
2022-10-22T21:05:03.768Z,12.68
2022-10-22T21:07:49.268Z,12.73
2022-10-22T21:10:35.002Z,12.65
2022-10-22T21:13:20.579Z,12.65
2022-10-22T21:16:11.444Z,12.72
2022-10-22T21:18:57.157Z,12.71
2022-10-22T21:21:42.621Z,12.61
2022-10-22T21:24:28.159Z,12.54
2022-10-22T21:27:13.963Z,12.62
2022-10-22T21:30:00.394Z,12.57
2022-10-22T21:32:46.405Z,12.46
2022-10-22T21:35:33.349Z,12.45
2022-10-22T21:38:19.833Z,12.41
2022-10-22T21:41:07.304Z,12.23
2022-10-22T21:43:53.158Z,12.17
2022-10-22T21:46:38.616Z,12.09
2022-10-22T21:49:24.973Z,12.06
2022-10-22T21:52:10.428Z,12.02
2022-10-22T21:54:56.855Z,11.90
2022-10-22T21:57:42.718Z,11.89
2022-10-22T22:00:28.872Z,11.84
2022-10-22T22:03:14.566Z,11.75
2022-10-22T22:06:02.154Z,11.70
2022-10-22T22:08:48.323Z,11.50
2022-10-22T22:11:34.380Z,11.52
2022-10-22T22:14:19.730Z,11.46
2022-10-22T22:17:05.635Z,11.44
2022-10-22T22:19:51.011Z,11.41
2022-10-22T22:22:36.874Z,11.37
2022-10-22T22:25:22.274Z,11.33
2022-10-22T22:28:07.969Z,11.27
2022-10-22T22:30:53.464Z,11.30
2022-10-22T22:33:39.717Z,11.20
2022-10-22T22:36:25.193Z,11.27
2022-10-22T22:39:12.705Z,11.25
2022-10-22T22:41:59.502Z,11.21
2022-10-22T22:44:46.463Z,11.14
2022-10-22T22:47:32.286Z,11.09
2022-10-22T22:50:18.471Z,11.08
2022-10-22T22:53:03.899Z,11.01
2022-10-22T22:55:50.416Z,11.04
2022-10-22T22:58:37.807Z,11.08
2022-10-22T23:01:29.751Z,11.03
2022-10-22T23:04:19.090Z,11.09
2022-10-22T23:07:05.008Z,11.13
2022-10-22T23:09:50.406Z,11.28
2022-10-22T23:12:36.216Z,11.30
2022-10-22T23:15:21.953Z,11.33
2022-10-22T23:18:07.460Z,11.35
2022-10-22T23:20:53.417Z,11.38
2022-10-22T23:23:43.052Z,11.39
2022-10-22T23:26:49.465Z,11.40
2022-10-22T23:29:36.425Z,11.43
2022-10-22T23:32:21.992Z,11.42
2022-10-22T23:35:09.490Z,11.34
2022-10-22T23:37:54.951Z,11.36
2022-10-22T23:40:40.701Z,11.45
2022-10-22T23:43:27.113Z,11.47
2022-10-22T23:46:14.198Z,11.50
2022-10-22T23:49:00.466Z,11.48
2022-10-22T23:51:46.619Z,11.47
2022-10-22T23:54:32.335Z,11.45
2022-10-22T23:57:18.759Z,11.51
